sensor_id;sensor_type;location;lat;lon;timestamp;temperature;humidity
37528;DHT22;23372;52.050;4.810;2023-02-01T00:00:53;6.60;99.90
37528;DHT22;23372;52.050;4.810;2023-02-01T00:03:18;6.60;99.90
37528;DHT22;23372;52.050;4.810;2023-02-01T00:05:44;6.60;99.90
37528;DHT22;23372;52.050;4.810;2023-02-01T00:08:10;6.60;99.90
37528;DHT22;23372;52.050;4.810;2023-02-01T00:10:35;6.60;99.90
37528;DHT22;23372;52.050;4.810;2023-02-01T00:13:01;6.60;99.90
37528;DHT22;23372;52.050;4.810;2023-02-01T00:15:26;6.60;99.90
37528;DHT22;23372;52.050;4.810;2023-02-01T00:17:55;6.60;99.90
37528;DHT22;23372;52.050;4.810;2023-02-01T00:20:20;6.70;99.90
37528;DHT22;23372;52.050;4.810;2023-02-01T00:22:46;6.70;99.90
37528;DHT22;23372;52.050;4.810;2023-02-01T00:25:11;6.60;99.90
37528;DHT22;23372;52.050;4.810;2023-02-01T00:27:37;6.70;99.90
37528;DHT22;23372;52.050;4.810;2023-02-01T00:30:03;6.70;99.90
37528;DHT22;23372;52.050;4.810;2023-02-01T00:32:28;6.70;99.90
37528;DHT22;23372;52.050;4.810;2023-02-01T00:34:54;6.70;99.90
37528;DHT22;23372;52.050;4.810;2023-02-01T00:37:19;6.70;99.90
37528;DHT22;23372;52.050;4.810;2023-02-01T00:39:45;6.70;99.90
37528;DHT22;23372;52.050;4.810;2023-02-01T00:42:10;6.70;99.90
37528;DHT22;23372;52.050;4.810;2023-02-01T00:44:36;6.70;99.90
37528;DHT22;23372;52.050;4.810;2023-02-01T00:47:01;6.70;99.90
37528;DHT22;23372;52.050;4.810;2023-02-01T00:49:28;6.70;99.90
37528;DHT22;23372;52.050;4.810;2023-02-01T00:51:54;6.70;99.90
37528;DHT22;23372;52.050;4.810;2023-02-01T00:54:19;6.70;99.90
37528;DHT22;23372;52.050;4.810;2023-02-01T00:56:45;6.70;99.90
37528;DHT22;23372;52.050;4.810;2023-02-01T00:59:11;6.60;99.90
37528;DHT22;23372;52.050;4.810;2023-02-01T01:01:37;6.60;99.90
37528;DHT22;23372;52.050;4.810;2023-02-01T01:04:03;6.50;99.90
37528;DHT22;23372;52.050;4.810;2023-02-01T01:06:31;6.60;99.90
37528;DHT22;23372;52.050;4.810;2023-02-01T01:08:59;6.60;99.90
37528;DHT22;23372;52.050;4.810;2023-02-01T01:11:27;6.60;99.90
37528;DHT22;23372;52.050;4.810;2023-02-01T01:13:54;6.60;99.90
37528;DHT22;23372;52.050;4.810;2023-02-01T01:16:22;6.60;99.90
37528;DHT22;23372;52.050;4.810;2023-02-01T01:18:49;6.60;99.90
37528;DHT22;23372;52.050;4.810;2023-02-01T01:21:15;6.70;99.90
37528;DHT22;23372;52.050;4.810;2023-02-01T01:23:42;6.70;99.90
37528;DHT22;23372;52.050;4.810;2023-02-01T01:26:10;6.70;99.90
37528;DHT22;23372;52.050;4.810;2023-02-01T01:28:36;6.70;99.90
37528;DHT22;23372;52.050;4.810;2023-02-01T01:31:02;6.70;99.90
37528;DHT22;23372;52.050;4.810;2023-02-01T01:33:28;6.80;99.90
37528;DHT22;23372;52.050;4.810;2023-02-01T01:35:53;6.80;99.90
37528;DHT22;23372;52.050;4.810;2023-02-01T01:38:19;6.80;99.90
37528;DHT22;23372;52.050;4.810;2023-02-01T01:40:46;6.80;99.90
37528;DHT22;23372;52.050;4.810;2023-02-01T01:43:14;6.80;99.90
37528;DHT22;23372;52.050;4.810;2023-02-01T01:45:40;6.90;99.90
37528;DHT22;23372;52.050;4.810;2023-02-01T01:48:25;6.90;99.90
37528;DHT22;23372;52.050;4.810;2023-02-01T01:50:57;6.90;99.90
37528;DHT22;23372;52.050;4.810;2023-02-01T01:53:28;6.90;99.90
37528;DHT22;23372;52.050;4.810;2023-02-01T01:55:57;7.00;99.90
37528;DHT22;23372;52.050;4.810;2023-02-01T01:58:25;7.10;99.90
37528;DHT22;23372;52.050;4.810;2023-02-01T02:00:52;7.10;99.90
37528;DHT22;23372;52.050;4.810;2023-02-01T02:05:47;7.30;99.90
37528;DHT22;23372;52.050;4.810;2023-02-01T02:08:14;7.20;99.90
37528;DHT22;23372;52.050;4.810;2023-02-01T02:10:40;7.20;99.90
37528;DHT22;23372;52.050;4.810;2023-02-01T02:13:24;7.20;99.90
37528;DHT22;23372;52.050;4.810;2023-02-01T02:16:02;7.20;99.90
37528;DHT22;23372;52.050;4.810;2023-02-01T02:24:35;7.10;99.90
37528;DHT22;23372;52.050;4.810;2023-02-01T02:30:14;7.10;99.90
37528;DHT22;23372;52.050;4.810;2023-02-01T02:38:32;7.00;99.90
37528;DHT22;23372;52.050;4.810;2023-02-01T02:41:10;7.00;99.90
37528;DHT22;23372;52.050;4.810;2023-02-01T02:43:48;7.00;99.90
37528;DHT22;23372;52.050;4.810;2023-02-01T02:46:39;7.10;99.90
37528;DHT22;23372;52.050;4.810;2023-02-01T02:49:39;7.10;99.90
37528;DHT22;23372;52.050;4.810;2023-02-01T02:52:18;7.10;99.90
37528;DHT22;23372;52.050;4.810;2023-02-01T02:55:05;7.10;99.90
37528;DHT22;23372;52.050;4.810;2023-02-01T02:57:36;7.10;99.90
37528;DHT22;23372;52.050;4.810;2023-02-01T03:00:25;7.20;99.90
37528;DHT22;23372;52.050;4.810;2023-02-01T03:03:11;7.10;99.90
37528;DHT22;23372;52.050;4.810;2023-02-01T03:05:56;7.10;99.90
37528;DHT22;23372;52.050;4.810;2023-02-01T03:08:26;7.00;99.90
37528;DHT22;23372;52.050;4.810;2023-02-01T03:11:02;7.00;99.90
37528;DHT22;23372;52.050;4.810;2023-02-01T03:14:06;7.00;99.90
37528;DHT22;23372;52.050;4.810;2023-02-01T03:16:50;7.00;99.90
37528;DHT22;23372;52.050;4.810;2023-02-01T03:19:31;7.00;99.90
37528;DHT22;23372;52.050;4.810;2023-02-01T03:22:05;7.00;99.90
37528;DHT22;23372;52.050;4.810;2023-02-01T03:24:37;7.00;99.90
37528;DHT22;23372;52.050;4.810;2023-02-01T03:27:41;7.00;99.90
37528;DHT22;23372;52.050;4.810;2023-02-01T03:30:11;6.90;99.90
37528;DHT22;23372;52.050;4.810;2023-02-01T03:32:45;6.80;99.90
37528;DHT22;23372;52.050;4.810;2023-02-01T03:35:30;6.80;99.90
37528;DHT22;23372;52.050;4.810;2023-02-01T03:40:57;6.80;99.90
37528;DHT22;23372;52.050;4.810;2023-02-01T03:43:27;6.80;99.90
37528;DHT22;23372;52.050;4.810;2023-02-01T03:46:00;6.70;99.90
37528;DHT22;23372;52.050;4.810;2023-02-01T03:48:28;6.70;99.90
37528;DHT22;23372;52.050;4.810;2023-02-01T03:50:57;6.70;99.90
37528;DHT22;23372;52.050;4.810;2023-02-01T03:53:24;6.80;99.90
37528;DHT22;23372;52.050;4.810;2023-02-01T03:55:51;6.80;99.90
37528;DHT22;23372;52.050;4.810;2023-02-01T03:58:20;6.80;99.90
37528;DHT22;23372;52.050;4.810;2023-02-01T04:00:55;6.80;99.90
37528;DHT22;23372;52.050;4.810;2023-02-01T04:03:21;6.80;99.90
37528;DHT22;23372;52.050;4.810;2023-02-01T04:05:50;6.70;99.90
37528;DHT22;23372;52.050;4.810;2023-02-01T04:08:17;6.80;99.90
37528;DHT22;23372;52.050;4.810;2023-02-01T04:10:43;6.80;99.90
37528;DHT22;23372;52.050;4.810;2023-02-01T04:13:09;6.90;99.90
37528;DHT22;23372;52.050;4.810;2023-02-01T04:15:34;6.90;99.90
37528;DHT22;23372;52.050;4.810;2023-02-01T04:18:00;6.90;99.90
37528;DHT22;23372;52.050;4.810;2023-02-01T04:20:26;6.90;99.90
37528;DHT22;23372;52.050;4.810;2023-02-01T04:22:52;7.00;99.90
37528;DHT22;23372;52.050;4.810;2023-02-01T04:25:18;7.00;99.90
37528;DHT22;23372;52.050;4.810;2023-02-01T04:27:43;7.00;99.90
37528;DHT22;23372;52.050;4.810;2023-02-01T04:30:10;7.00;99.90
37528;DHT22;23372;52.050;4.810;2023-02-01T04:32:39;7.00;99.90
37528;DHT22;23372;52.050;4.810;2023-02-01T04:35:05;7.00;99.90
37528;DHT22;23372;52.050;4.810;2023-02-01T04:37:31;7.00;99.90
37528;DHT22;23372;52.050;4.810;2023-02-01T04:39:56;6.90;99.90
37528;DHT22;23372;52.050;4.810;2023-02-01T04:42:22;6.80;99.90
37528;DHT22;23372;52.050;4.810;2023-02-01T04:44:47;6.70;99.90
37528;DHT22;23372;52.050;4.810;2023-02-01T04:47:13;6.70;99.90
37528;DHT22;23372;52.050;4.810;2023-02-01T04:49:39;6.70;99.90
37528;DHT22;23372;52.050;4.810;2023-02-01T04:52:05;6.60;99.90
37528;DHT22;23372;52.050;4.810;2023-02-01T04:54:31;6.60;99.90
37528;DHT22;23372;52.050;4.810;2023-02-01T04:56:56;6.60;99.90
37528;DHT22;23372;52.050;4.810;2023-02-01T04:59:22;6.50;99.90
37528;DHT22;23372;52.050;4.810;2023-02-01T05:01:47;6.50;99.90
37528;DHT22;23372;52.050;4.810;2023-02-01T05:04:13;6.50;99.90
37528;DHT22;23372;52.050;4.810;2023-02-01T05:06:38;6.60;99.90
37528;DHT22;23372;52.050;4.810;2023-02-01T05:09:04;6.60;99.90
37528;DHT22;23372;52.050;4.810;2023-02-01T05:11:29;6.60;99.90
37528;DHT22;23372;52.050;4.810;2023-02-01T05:14:13;6.60;99.90
37528;DHT22;23372;52.050;4.810;2023-02-01T05:16:39;6.50;99.90
37528;DHT22;23372;52.050;4.810;2023-02-01T05:19:05;6.50;99.90
37528;DHT22;23372;52.050;4.810;2023-02-01T05:21:30;6.50;99.90
37528;DHT22;23372;52.050;4.810;2023-02-01T05:23:56;6.40;99.90
37528;DHT22;23372;52.050;4.810;2023-02-01T05:26:45;6.30;99.90
37528;DHT22;23372;52.050;4.810;2023-02-01T05:29:11;6.40;99.90
37528;DHT22;23372;52.050;4.810;2023-02-01T05:31:37;6.30;99.90
37528;DHT22;23372;52.050;4.810;2023-02-01T05:34:03;6.30;99.90
37528;DHT22;23372;52.050;4.810;2023-02-01T05:36:29;6.40;99.90
37528;DHT22;23372;52.050;4.810;2023-02-01T05:38:55;6.50;99.90
37528;DHT22;23372;52.050;4.810;2023-02-01T05:41:20;6.50;99.90
37528;DHT22;23372;52.050;4.810;2023-02-01T05:43:46;6.60;99.90
37528;DHT22;23372;52.050;4.810;2023-02-01T05:46:12;6.60;99.90
37528;DHT22;23372;52.050;4.810;2023-02-01T05:48:42;6.60;99.90
37528;DHT22;23372;52.050;4.810;2023-02-01T05:51:09;6.60;99.90
37528;DHT22;23372;52.050;4.810;2023-02-01T05:53:34;6.60;99.90
37528;DHT22;23372;52.050;4.810;2023-02-01T05:56:00;6.50;99.90
37528;DHT22;23372;52.050;4.810;2023-02-01T05:58:26;6.50;99.90
37528;DHT22;23372;52.050;4.810;2023-02-01T06:00:52;6.50;99.90
37528;DHT22;23372;52.050;4.810;2023-02-01T06:03:18;6.40;99.90
37528;DHT22;23372;52.050;4.810;2023-02-01T06:05:44;6.40;99.90
37528;DHT22;23372;52.050;4.810;2023-02-01T06:08:10;6.40;99.90
37528;DHT22;23372;52.050;4.810;2023-02-01T06:10:36;6.40;99.90
37528;DHT22;23372;52.050;4.810;2023-02-01T06:13:01;6.50;99.90
37528;DHT22;23372;52.050;4.810;2023-02-01T06:15:29;6.40;99.90
37528;DHT22;23372;52.050;4.810;2023-02-01T06:17:55;6.40;99.90
37528;DHT22;23372;52.050;4.810;2023-02-01T06:20:20;6.50;99.90
37528;DHT22;23372;52.050;4.810;2023-02-01T06:22:46;6.60;99.90
37528;DHT22;23372;52.050;4.810;2023-02-01T06:25:11;6.50;99.90
37528;DHT22;23372;52.050;4.810;2023-02-01T06:27:37;6.50;99.90
37528;DHT22;23372;52.050;4.810;2023-02-01T06:30:04;6.60;99.90
37528;DHT22;23372;52.050;4.810;2023-02-01T06:32:31;6.60;99.90
37528;DHT22;23372;52.050;4.810;2023-02-01T06:34:56;6.60;99.90
37528;DHT22;23372;52.050;4.810;2023-02-01T06:37:23;6.60;99.90
37528;DHT22;23372;52.050;4.810;2023-02-01T06:39:50;6.70;99.90
37528;DHT22;23372;52.050;4.810;2023-02-01T06:42:16;6.70;99.90
37528;DHT22;23372;52.050;4.810;2023-02-01T06:44:42;6.70;99.90
37528;DHT22;23372;52.050;4.810;2023-02-01T06:47:07;6.70;99.90
37528;DHT22;23372;52.050;4.810;2023-02-01T06:49:33;6.80;99.90
37528;DHT22;23372;52.050;4.810;2023-02-01T06:51:58;6.80;99.90
37528;DHT22;23372;52.050;4.810;2023-02-01T06:54:26;6.80;99.90
37528;DHT22;23372;52.050;4.810;2023-02-01T06:56:51;6.80;99.90
37528;DHT22;23372;52.050;4.810;2023-02-01T06:59:17;6.80;99.90
37528;DHT22;23372;52.050;4.810;2023-02-01T07:01:42;6.80;99.90
37528;DHT22;23372;52.050;4.810;2023-02-01T07:04:10;6.90;99.90
37528;DHT22;23372;52.050;4.810;2023-02-01T07:06:36;6.80;99.90
37528;DHT22;23372;52.050;4.810;2023-02-01T07:09:01;6.80;99.90
37528;DHT22;23372;52.050;4.810;2023-02-01T07:11:27;6.80;99.90
37528;DHT22;23372;52.050;4.810;2023-02-01T07:13:53;6.80;99.90
37528;DHT22;23372;52.050;4.810;2023-02-01T07:16:19;6.80;99.90
37528;DHT22;23372;52.050;4.810;2023-02-01T07:18:45;6.80;99.90
37528;DHT22;23372;52.050;4.810;2023-02-01T07:21:12;6.80;99.90
37528;DHT22;23372;52.050;4.810;2023-02-01T07:23:38;6.80;99.90
37528;DHT22;23372;52.050;4.810;2023-02-01T07:26:06;6.70;99.90
37528;DHT22;23372;52.050;4.810;2023-02-01T07:28:34;6.70;99.90
37528;DHT22;23372;52.050;4.810;2023-02-01T07:31:11;6.60;99.90
37528;DHT22;23372;52.050;4.810;2023-02-01T07:33:38;6.60;99.90
37528;DHT22;23372;52.050;4.810;2023-02-01T07:36:06;6.60;99.90
37528;DHT22;23372;52.050;4.810;2023-02-01T07:38:31;6.60;99.90
37528;DHT22;23372;52.050;4.810;2023-02-01T07:41:02;6.70;99.90
37528;DHT22;23372;52.050;4.810;2023-02-01T07:43:28;6.70;99.90
37528;DHT22;23372;52.050;4.810;2023-02-01T07:45:55;6.70;99.90
37528;DHT22;23372;52.050;4.810;2023-02-01T07:48:21;6.80;99.90
37528;DHT22;23372;52.050;4.810;2023-02-01T07:50:48;6.70;99.90
37528;DHT22;23372;52.050;4.810;2023-02-01T07:53:14;6.80;99.90
37528;DHT22;23372;52.050;4.810;2023-02-01T07:55:40;6.80;99.90
37528;DHT22;23372;52.050;4.810;2023-02-01T07:58:05;6.80;99.90
37528;DHT22;23372;52.050;4.810;2023-02-01T08:00:31;6.70;99.90
37528;DHT22;23372;52.050;4.810;2023-02-01T08:03:15;6.70;99.90
37528;DHT22;23372;52.050;4.810;2023-02-01T08:05:41;6.70;99.90
37528;DHT22;23372;52.050;4.810;2023-02-01T08:08:07;6.70;99.90
37528;DHT22;23372;52.050;4.810;2023-02-01T08:10:33;6.70;99.90
37528;DHT22;23372;52.050;4.810;2023-02-01T08:13:00;6.70;99.90
37528;DHT22;23372;52.050;4.810;2023-02-01T08:15:27;6.80;99.90
37528;DHT22;23372;52.050;4.810;2023-02-01T08:17:52;6.80;99.90
37528;DHT22;23372;52.050;4.810;2023-02-01T08:20:20;6.80;99.90
37528;DHT22;23372;52.050;4.810;2023-02-01T08:22:49;6.80;99.90
37528;DHT22;23372;52.050;4.810;2023-02-01T08:25:15;6.90;99.90
37528;DHT22;23372;52.050;4.810;2023-02-01T08:27:41;6.80;99.90
37528;DHT22;23372;52.050;4.810;2023-02-01T08:30:07;6.90;99.90
37528;DHT22;23372;52.050;4.810;2023-02-01T08:32:33;6.90;99.90
37528;DHT22;23372;52.050;4.810;2023-02-01T08:34:58;7.00;99.90
37528;DHT22;23372;52.050;4.810;2023-02-01T08:37:24;7.10;99.90
37528;DHT22;23372;52.050;4.810;2023-02-01T08:39:49;7.20;99.90
37528;DHT22;23372;52.050;4.810;2023-02-01T08:42:16;7.30;99.90
37528;DHT22;23372;52.050;4.810;2023-02-01T08:45:02;7.30;99.90
37528;DHT22;23372;52.050;4.810;2023-02-01T08:47:28;7.30;99.90
37528;DHT22;23372;52.050;4.810;2023-02-01T08:49:54;7.40;99.90
37528;DHT22;23372;52.050;4.810;2023-02-01T08:52:20;7.40;99.90
37528;DHT22;23372;52.050;4.810;2023-02-01T08:54:45;7.40;99.90
37528;DHT22;23372;52.050;4.810;2023-02-01T08:57:11;7.40;99.90
37528;DHT22;23372;52.050;4.810;2023-02-01T08:59:37;7.50;99.90
37528;DHT22;23372;52.050;4.810;2023-02-01T09:02:02;7.50;99.90
37528;DHT22;23372;52.050;4.810;2023-02-01T09:04:28;7.50;99.90
37528;DHT22;23372;52.050;4.810;2023-02-01T09:06:53;7.60;99.90
37528;DHT22;23372;52.050;4.810;2023-02-01T09:09:23;7.60;99.90
37528;DHT22;23372;52.050;4.810;2023-02-01T09:11:49;7.70;99.90
37528;DHT22;23372;52.050;4.810;2023-02-01T09:14:19;7.80;99.90
37528;DHT22;23372;52.050;4.810;2023-02-01T09:16:45;7.90;99.90
37528;DHT22;23372;52.050;4.810;2023-02-01T09:19:10;8.00;99.90
37528;DHT22;23372;52.050;4.810;2023-02-01T09:21:36;8.00;99.90
37528;DHT22;23372;52.050;4.810;2023-02-01T09:24:01;8.00;99.90
37528;DHT22;23372;52.050;4.810;2023-02-01T09:26:27;8.00;99.90
37528;DHT22;23372;52.050;4.810;2023-02-01T09:28:53;8.00;99.90
37528;DHT22;23372;52.050;4.810;2023-02-01T09:31:18;7.90;99.90
37528;DHT22;23372;52.050;4.810;2023-02-01T09:33:44;7.80;99.90
37528;DHT22;23372;52.050;4.810;2023-02-01T09:36:10;7.80;99.90
37528;DHT22;23372;52.050;4.810;2023-02-01T09:38:35;7.80;99.90
37528;DHT22;23372;52.050;4.810;2023-02-01T09:41:01;7.80;99.90
37528;DHT22;23372;52.050;4.810;2023-02-01T09:43:41;7.80;99.90
37528;DHT22;23372;52.050;4.810;2023-02-01T09:46:21;7.80;99.90
37528;DHT22;23372;52.050;4.810;2023-02-01T09:48:49;7.80;99.90
37528;DHT22;23372;52.050;4.810;2023-02-01T09:51:25;7.80;99.90
37528;DHT22;23372;52.050;4.810;2023-02-01T09:54:14;7.80;99.90
37528;DHT22;23372;52.050;4.810;2023-02-01T09:56:48;7.80;99.90
37528;DHT22;23372;52.050;4.810;2023-02-01T09:59:49;7.80;99.90
37528;DHT22;23372;52.050;4.810;2023-02-01T10:02:20;7.70;99.90
37528;DHT22;23372;52.050;4.810;2023-02-01T10:04:47;7.70;99.90
37528;DHT22;23372;52.050;4.810;2023-02-01T10:10:28;7.60;99.90
37528;DHT22;23372;52.050;4.810;2023-02-01T10:13:25;7.50;99.90
37528;DHT22;23372;52.050;4.810;2023-02-01T10:26:25;7.70;99.90
37528;DHT22;23372;52.050;4.810;2023-02-01T10:28:56;7.60;99.90
37528;DHT22;23372;52.050;4.810;2023-02-01T10:31:25;7.70;99.90
37528;DHT22;23372;52.050;4.810;2023-02-01T10:33:56;7.80;99.90
37528;DHT22;23372;52.050;4.810;2023-02-01T10:36:32;7.80;99.90
37528;DHT22;23372;52.050;4.810;2023-02-01T10:39:02;7.90;99.90
37528;DHT22;23372;52.050;4.810;2023-02-01T10:41:34;7.80;99.90
37528;DHT22;23372;52.050;4.810;2023-02-01T10:44:03;7.80;99.90
37528;DHT22;23372;52.050;4.810;2023-02-01T10:46:30;7.90;99.90
37528;DHT22;23372;52.050;4.810;2023-02-01T10:48:58;8.00;99.90
37528;DHT22;23372;52.050;4.810;2023-02-01T10:51:39;8.10;99.90
37528;DHT22;23372;52.050;4.810;2023-02-01T10:54:31;8.00;99.90
37528;DHT22;23372;52.050;4.810;2023-02-01T10:56:57;8.10;99.90
37528;DHT22;23372;52.050;4.810;2023-02-01T10:59:28;8.00;99.90
37528;DHT22;23372;52.050;4.810;2023-02-01T11:02:22;8.00;99.90
37528;DHT22;23372;52.050;4.810;2023-02-01T11:05:02;7.90;99.90
37528;DHT22;23372;52.050;4.810;2023-02-01T11:07:29;7.90;99.90
37528;DHT22;23372;52.050;4.810;2023-02-01T11:09:55;7.90;99.90
37528;DHT22;23372;52.050;4.810;2023-02-01T11:12:41;7.90;99.90
37528;DHT22;23372;52.050;4.810;2023-02-01T11:15:23;7.90;99.90
37528;DHT22;23372;52.050;4.810;2023-02-01T11:17:52;7.90;99.90
37528;DHT22;23372;52.050;4.810;2023-02-01T11:22:59;7.90;99.90
37528;DHT22;23372;52.050;4.810;2023-02-01T11:25:25;7.90;99.90
37528;DHT22;23372;52.050;4.810;2023-02-01T11:27:53;7.90;99.90
37528;DHT22;23372;52.050;4.810;2023-02-01T11:30:33;8.00;99.90
37528;DHT22;23372;52.050;4.810;2023-02-01T11:33:00;8.00;99.90
37528;DHT22;23372;52.050;4.810;2023-02-01T11:35:27;8.00;99.90
37528;DHT22;23372;52.050;4.810;2023-02-01T11:38:00;8.00;99.90
37528;DHT22;23372;52.050;4.810;2023-02-01T11:40:29;8.00;99.90
37528;DHT22;23372;52.050;4.810;2023-02-01T11:43:01;8.10;99.90
37528;DHT22;23372;52.050;4.810;2023-02-01T11:45:33;8.10;99.90
37528;DHT22;23372;52.050;4.810;2023-02-01T11:48:00;8.20;99.90
37528;DHT22;23372;52.050;4.810;2023-02-01T12:06:52;8.30;99.90
37528;DHT22;23372;52.050;4.810;2023-02-01T12:12:47;8.20;99.90
37528;DHT22;23372;52.050;4.810;2023-02-01T12:21:03;8.30;99.90
37528;DHT22;23372;52.050;4.810;2023-02-01T12:29:30;8.40;99.90
37528;DHT22;23372;52.050;4.810;2023-02-01T12:35:01;8.40;99.90
37528;DHT22;23372;52.050;4.810;2023-02-01T12:40:45;8.40;99.90
37528;DHT22;23372;52.050;4.810;2023-02-01T12:46:11;8.60;99.90
37528;DHT22;23372;52.050;4.810;2023-02-01T12:48:55;8.60;99.90
37528;DHT22;23372;52.050;4.810;2023-02-01T12:51:39;8.80;99.90
37528;DHT22;23372;52.050;4.810;2023-02-01T12:54:13;9.00;99.90
37528;DHT22;23372;52.050;4.810;2023-02-01T12:59:34;9.10;99.90
37528;DHT22;23372;52.050;4.810;2023-02-01T13:02:16;9.10;99.90
37528;DHT22;23372;52.050;4.810;2023-02-01T13:04:57;9.10;99.90
37528;DHT22;23372;52.050;4.810;2023-02-01T13:07:34;9.20;99.90
37528;DHT22;23372;52.050;4.810;2023-02-01T13:12:43;9.40;99.90
37528;DHT22;23372;52.050;4.810;2023-02-01T13:15:29;9.20;99.90
37528;DHT22;23372;52.050;4.810;2023-02-01T13:17:59;9.00;99.90
37528;DHT22;23372;52.050;4.810;2023-02-01T13:20:50;9.00;99.90
37528;DHT22;23372;52.050;4.810;2023-02-01T13:23:34;9.00;99.90
37528;DHT22;23372;52.050;4.810;2023-02-01T13:26:00;8.90;99.90
37528;DHT22;23372;52.050;4.810;2023-02-01T13:36:45;8.80;99.90
37528;DHT22;23372;52.050;4.810;2023-02-01T13:42:24;8.70;99.90
37528;DHT22;23372;52.050;4.810;2023-02-01T13:45:15;8.70;99.90
37528;DHT22;23372;52.050;4.810;2023-02-01T13:47:44;8.60;99.90
37528;DHT22;23372;52.050;4.810;2023-02-01T13:50:30;8.60;99.90
37528;DHT22;23372;52.050;4.810;2023-02-01T13:55:39;8.60;99.90
37528;DHT22;23372;52.050;4.810;2023-02-01T13:58:19;8.50;99.90
37528;DHT22;23372;52.050;4.810;2023-02-01T14:00:45;8.50;99.90
37528;DHT22;23372;52.050;4.810;2023-02-01T14:03:14;8.50;99.90
37528;DHT22;23372;52.050;4.810;2023-02-01T14:08:11;8.40;99.90
37528;DHT22;23372;52.050;4.810;2023-02-01T14:13:36;8.50;99.90
37528;DHT22;23372;52.050;4.810;2023-02-01T14:21:27;8.60;99.90
37528;DHT22;23372;52.050;4.810;2023-02-01T14:26:26;8.60;99.90
37528;DHT22;23372;52.050;4.810;2023-02-01T14:28:59;8.60;99.90
37528;DHT22;23372;52.050;4.810;2023-02-01T14:53:03;8.40;99.90
37528;DHT22;23372;52.050;4.810;2023-02-01T14:58:51;8.40;99.90
37528;DHT22;23372;52.050;4.810;2023-02-01T15:00:54;8.50;99.90
37528;DHT22;23372;52.050;4.810;2023-02-01T15:06:00;8.40;99.90
37528;DHT22;23372;52.050;4.810;2023-02-01T15:08:33;8.40;99.90
37528;DHT22;23372;52.050;4.810;2023-02-01T15:11:14;8.40;99.90
37528;DHT22;23372;52.050;4.810;2023-02-01T15:13:40;8.50;99.90
37528;DHT22;23372;52.050;4.810;2023-02-01T15:16:14;8.40;99.90
37528;DHT22;23372;52.050;4.810;2023-02-01T15:18:40;8.40;99.90
37528;DHT22;23372;52.050;4.810;2023-02-01T15:21:13;8.40;99.90
37528;DHT22;23372;52.050;4.810;2023-02-01T15:23:39;8.40;99.90
37528;DHT22;23372;52.050;4.810;2023-02-01T15:26:05;8.30;99.90
37528;DHT22;23372;52.050;4.810;2023-02-01T15:28:31;8.30;99.90
37528;DHT22;23372;52.050;4.810;2023-02-01T15:33:22;8.40;99.90
37528;DHT22;23372;52.050;4.810;2023-02-01T15:35:50;8.40;99.90
37528;DHT22;23372;52.050;4.810;2023-02-01T15:41:13;8.40;99.90
37528;DHT22;23372;52.050;4.810;2023-02-01T15:46:42;8.50;99.90
37528;DHT22;23372;52.050;4.810;2023-02-01T15:49:25;8.50;99.90
37528;DHT22;23372;52.050;4.810;2023-02-01T15:51:51;8.50;99.90
37528;DHT22;23372;52.050;4.810;2023-02-01T15:54:22;8.50;99.90
37528;DHT22;23372;52.050;4.810;2023-02-01T15:56:53;8.50;99.90
37528;DHT22;23372;52.050;4.810;2023-02-01T15:59:22;8.40;99.90
37528;DHT22;23372;52.050;4.810;2023-02-01T16:01:50;8.50;99.90
37528;DHT22;23372;52.050;4.810;2023-02-01T16:04:23;8.50;99.90
37528;DHT22;23372;52.050;4.810;2023-02-01T16:06:55;8.50;99.90
37528;DHT22;23372;52.050;4.810;2023-02-01T16:09:39;8.50;99.90
37528;DHT22;23372;52.050;4.810;2023-02-01T16:14:55;8.50;99.90
37528;DHT22;23372;52.050;4.810;2023-02-01T16:17:20;8.50;99.90
37528;DHT22;23372;52.050;4.810;2023-02-01T16:19:46;8.60;99.90
37528;DHT22;23372;52.050;4.810;2023-02-01T16:22:12;8.60;99.90
37528;DHT22;23372;52.050;4.810;2023-02-01T16:24:37;8.60;99.90
37528;DHT22;23372;52.050;4.810;2023-02-01T16:27:03;8.60;99.90
37528;DHT22;23372;52.050;4.810;2023-02-01T16:29:30;8.60;99.90
37528;DHT22;23372;52.050;4.810;2023-02-01T16:31:55;8.60;99.90
37528;DHT22;23372;52.050;4.810;2023-02-01T16:34:21;8.60;99.90
37528;DHT22;23372;52.050;4.810;2023-02-01T16:36:48;8.60;99.90
37528;DHT22;23372;52.050;4.810;2023-02-01T16:39:18;8.60;99.90
37528;DHT22;23372;52.050;4.810;2023-02-01T16:41:44;8.60;99.90
37528;DHT22;23372;52.050;4.810;2023-02-01T16:44:13;8.60;99.90
37528;DHT22;23372;52.050;4.810;2023-02-01T16:46:43;8.70;99.90
37528;DHT22;23372;52.050;4.810;2023-02-01T16:49:23;8.70;99.90
37528;DHT22;23372;52.050;4.810;2023-02-01T16:51:51;8.70;99.90
37528;DHT22;23372;52.050;4.810;2023-02-01T16:54:18;8.70;99.90
37528;DHT22;23372;52.050;4.810;2023-02-01T16:56:45;8.80;99.90
37528;DHT22;23372;52.050;4.810;2023-02-01T16:59:11;8.80;99.90
37528;DHT22;23372;52.050;4.810;2023-02-01T17:01:37;8.80;99.90
37528;DHT22;23372;52.050;4.810;2023-02-01T17:04:07;8.80;99.90
37528;DHT22;23372;52.050;4.810;2023-02-01T17:06:33;8.70;99.90
37528;DHT22;23372;52.050;4.810;2023-02-01T17:09:02;8.70;99.90
37528;DHT22;23372;52.050;4.810;2023-02-01T17:11:28;8.70;99.90
37528;DHT22;23372;52.050;4.810;2023-02-01T17:13:56;8.70;99.90
37528;DHT22;23372;52.050;4.810;2023-02-01T17:16:30;8.70;99.90
37528;DHT22;23372;52.050;4.810;2023-02-01T17:19:05;8.60;99.90
37528;DHT22;23372;52.050;4.810;2023-02-01T17:21:40;8.60;99.90
37528;DHT22;23372;52.050;4.810;2023-02-01T17:24:09;8.60;99.90
37528;DHT22;23372;52.050;4.810;2023-02-01T17:26:34;8.60;99.90
37528;DHT22;23372;52.050;4.810;2023-02-01T17:29:00;8.70;99.90
37528;DHT22;23372;52.050;4.810;2023-02-01T17:31:25;8.70;99.90
37528;DHT22;23372;52.050;4.810;2023-02-01T17:33:51;8.60;99.90
37528;DHT22;23372;52.050;4.810;2023-02-01T17:36:17;8.60;99.90
37528;DHT22;23372;52.050;4.810;2023-02-01T17:38:43;8.60;99.90
37528;DHT22;23372;52.050;4.810;2023-02-01T17:41:13;8.60;99.90
37528;DHT22;23372;52.050;4.810;2023-02-01T17:43:39;8.60;99.90
37528;DHT22;23372;52.050;4.810;2023-02-01T17:48:35;8.60;99.90
37528;DHT22;23372;52.050;4.810;2023-02-01T17:51:00;8.60;99.90
37528;DHT22;23372;52.050;4.810;2023-02-01T17:53:27;8.60;99.90
37528;DHT22;23372;52.050;4.810;2023-02-01T17:55:54;8.60;99.90
37528;DHT22;23372;52.050;4.810;2023-02-01T17:58:22;8.60;99.90
37528;DHT22;23372;52.050;4.810;2023-02-01T18:00:48;8.50;99.90
37528;DHT22;23372;52.050;4.810;2023-02-01T18:03:28;8.60;99.90
37528;DHT22;23372;52.050;4.810;2023-02-01T18:05:56;8.60;99.90
37528;DHT22;23372;52.050;4.810;2023-02-01T18:08:23;8.50;99.90
37528;DHT22;23372;52.050;4.810;2023-02-01T18:10:51;8.50;99.90
37528;DHT22;23372;52.050;4.810;2023-02-01T18:13:18;8.60;99.90
37528;DHT22;23372;52.050;4.810;2023-02-01T18:15:44;8.60;99.90
37528;DHT22;23372;52.050;4.810;2023-02-01T18:18:09;8.60;99.90
37528;DHT22;23372;52.050;4.810;2023-02-01T18:20:35;8.60;99.90
37528;DHT22;23372;52.050;4.810;2023-02-01T18:23:01;8.60;99.90
37528;DHT22;23372;52.050;4.810;2023-02-01T18:25:29;8.60;99.90
37528;DHT22;23372;52.050;4.810;2023-02-01T18:27:58;8.60;99.90
37528;DHT22;23372;52.050;4.810;2023-02-01T18:30:28;8.60;99.90